Time;durP1;ratioP1;P1;durP2;ratioP2;P2;SDS_P1;SDS_P2;PMS_P1;PMS_P2;Temp;Humidity;BMP_temperature;BMP_pressure;BME280_temperature;BME280_humidity;BME280_pressure;Samples;Min_cycle;Max_cycle;Signal;HPM_P1;HPM_P2
2022/10/14 00:01:25;;;;;;;4.13;2.28;;;;;;;17.14;60.87;101578.88;6343128;22;19995;-83
2022/10/14 00:03:52;;;;;;;3.75;2.20;;;;;;;17.14;60.98;101589.28;6314883;22;20011;-82
2022/10/14 00:06:21;;;;;;;3.20;2.35;;;;;;;17.14;61.05;101591.88;6315711;22;20081;-82
2022/10/14 00:08:46;;;;;;;3.17;1.80;;;;;;;17.15;60.97;101596.22;6315054;22;20346;-83
2022/10/14 00:11:16;;;;;;;3.78;2.33;;;;;;;17.13;61.00;101590.97;6316407;22;20015;-84
2022/10/14 00:13:41;;;;;;;2.40;2.05;;;;;;;17.14;60.98;101597.09;6315753;22;20010;-81
2022/10/14 00:16:18;;;;;;;2.58;1.95;;;;;;;17.12;60.95;101593.59;6313838;22;20006;-82
2022/10/14 00:18:44;;;;;;;2.58;1.80;;;;;;;17.13;60.68;101590.13;6314318;22;20010;-82
2022/10/14 00:21:09;;;;;;;2.58;2.00;;;;;;;17.13;60.87;101583.19;6288976;22;20015;-82
2022/10/14 00:23:35;;;;;;;3.38;2.20;;;;;;;17.11;61.02;101584.91;6315782;22;20429;-82
2022/10/14 00:26:00;;;;;;;4.47;2.00;;;;;;;17.13;60.91;101574.53;6291266;22;20007;-83
2022/10/14 00:28:25;;;;;;;2.63;1.75;;;;;;;17.14;60.77;101573.69;6317175;22;20029;-82
2022/10/14 00:30:56;;;;;;;2.90;1.92;;;;;;;17.14;60.77;101566.72;6290440;22;20030;-83
2022/10/14 00:33:22;;;;;;;3.63;1.90;;;;;;;17.13;60.82;101557.19;6344672;22;20271;-82
2022/10/14 00:36:00;;;;;;;3.55;2.03;;;;;;;17.15;60.78;101562.41;6315617;22;20426;-81
2022/10/14 00:38:26;;;;;;;2.53;1.70;;;;;;;17.12;61.04;101550.25;6312753;22;20023;-82
2022/10/14 00:40:53;;;;;;;2.50;1.77;;;;;;;17.12;60.70;101545.06;6312755;22;20441;-83
2022/10/14 00:43:19;;;;;;;3.30;2.20;;;;;;;17.12;60.71;101534.66;6258899;22;20007;-82
2022/10/14 00:45:45;;;;;;;3.10;1.85;;;;;;;17.12;60.94;101539.84;6284990;22;20007;-82
2022/10/14 00:48:11;;;;;;;3.03;1.90;;;;;;;17.14;60.80;101538.13;6313843;22;20415;-82
2022/10/14 00:50:40;;;;;;;2.17;1.80;;;;;;;17.13;60.50;101528.56;6284540;22;20007;-82
2022/10/14 00:53:06;;;;;;;3.35;2.00;;;;;;;17.13;60.64;101538.13;6285129;22;20452;-82
2022/10/14 00:55:32;;;;;;;2.88;1.90;;;;;;;17.14;60.85;101529.47;6261303;22;20061;-82
2022/10/14 00:57:58;;;;;;;1.95;1.50;;;;;;;17.15;60.81;101533.78;6285806;22;20014;-83
2022/10/14 01:00:23;;;;;;;2.60;1.83;;;;;;;17.12;60.59;101524.25;6260780;22;20331;-83
2022/10/14 01:02:49;;;;;;;2.83;1.80;;;;;;;17.14;60.67;101532.06;6311725;22;20003;-83
2022/10/14 01:05:18;;;;;;;3.20;1.80;;;;;;;17.14;60.63;101529.47;6285677;22;20023;-83
2022/10/14 01:07:53;;;;;;;2.15;1.55;;;;;;;17.15;60.67;101533.78;6285644;22;20083;-83
2022/10/14 01:10:33;;;;;;;2.45;1.40;;;;;;;17.15;60.80;101531.19;6287156;22;20423;-82
2022/10/14 01:13:24;;;;;;;2.20;1.45;;;;;;;17.15;60.60;101532.03;6314968;22;20105;-83
2022/10/14 01:16:14;;;;;;;1.98;1.50;;;;;;;17.13;60.70;101525.97;6289125;22;20007;-83
2022/10/14 01:19:03;;;;;;;2.10;1.42;;;;;;;17.14;60.62;101529.47;6311717;22;20003;-82
2022/10/14 01:22:16;;;;;;;2.78;1.50;;;;;;;17.14;60.73;101529.47;6287232;22;20003;-83
2022/10/14 01:25:27;;;;;;;2.22;1.65;;;;;;;17.14;60.55;101542.47;6297260;22;20011;-81
2022/10/14 01:28:01;;;;;;;2.30;1.70;;;;;;;17.13;60.74;101538.97;6283013;22;20078;-82
2022/10/14 01:30:32;;;;;;;2.30;1.60;;;;;;;17.12;60.80;101534.66;6310884;22;20074;-82
2022/10/14 01:33:14;;;;;;;2.20;1.38;;;;;;;17.15;60.54;101539.84;6283493;22;20081;-82
2022/10/14 01:36:01;;;;;;;2.78;1.52;;;;;;;17.14;60.76;101534.66;6309136;22;20049;-82
2022/10/14 01:38:33;;;;;;;2.47;1.55;;;;;;;17.12;60.62;101529.44;6315039;22;20023;-82
2022/10/14 01:41:17;;;;;;;2.88;1.73;;;;;;;17.12;60.80;101526.84;6314470;22;20034;-82
2022/10/14 01:43:45;;;;;;;2.00;1.40;;;;;;;17.13;60.44;101528.56;6342393;22;20414;-82
2022/10/14 01:46:12;;;;;;;1.83;1.38;;;;;;;17.12;60.52;101519.03;6314408;22;20423;-82
2022/10/14 01:48:44;;;;;;;2.10;1.30;;;;;;;17.13;60.52;101519.91;6315020;22;20085;-82
2022/10/14 01:51:14;;;;;;;1.60;1.30;;;;;;;17.13;60.55;101517.31;6342849;22;20383;-82
2022/10/14 01:53:44;;;;;;;1.90;1.40;;;;;;;17.13;60.58;101512.09;6342648;22;20078;-82
2022/10/14 01:56:11;;;;;;;2.10;1.35;;;;;;;17.12;60.70;101499.97;6315315;22;20422;-82
2022/10/14 01:58:39;;;;;;;2.45;1.60;;;;;;;17.12;60.86;101493.03;6315612;22;20010;-82
2022/10/14 02:01:07;;;;;;;2.90;1.67;;;;;;;17.12;60.64;101490.44;6314888;22;20014;-82
2022/10/14 02:03:41;;;;;;;2.08;1.58;;;;;;;17.12;60.50;101480.03;6343185;22;20003;-82
2022/10/14 02:06:24;;;;;;;2.65;1.70;;;;;;;17.11;60.58;101486.09;6316990;22;20093;-83
2022/10/14 02:09:26;;;;;;;2.35;1.73;;;;;;;17.12;60.67;101480.03;6343648;22;20022;-83
2022/10/14 02:12:31;;;;;;;2.63;1.50;;;;;;;17.12;60.54;101482.63;6316407;22;20082;-83
2022/10/14 02:15:15;;;;;;;;;;;;;;;17.12;60.59;101481.78;6314236;22;20018;-82
2022/10/14 02:17:50;;;;;;;3.10;1.67;;;;;;;17.13;60.42;101486.97;6313293;22;19906;-83
2022/10/14 02:20:25;;;;;;;2.35;1.50;;;;;;;17.12;60.54;101494.78;6341487;22;20018;-82
2022/10/14 02:22:57;;;;;;;2.40;1.67;;;;;;;17.09;60.61;101498.22;6313934;22;20426;-82
2022/10/14 02:25:27;;;;;;;2.50;1.83;;;;;;;17.11;60.46;101503.44;6341581;22;20081;-82
2022/10/14 02:27:53;;;;;;;2.40;1.70;;;;;;;17.10;60.46;101486.97;6314386;22;20449;-81
2022/10/14 02:30:18;;;;;;;3.25;1.60;;;;;;;17.11;60.57;101488.69;6313992;22;20002;-81
2022/10/14 02:32:46;;;;;;;1.60;1.30;;;;;;;17.10;60.62;101471.38;6288017;22;20010;-82
2022/10/14 02:35:15;;;;;;;2.38;1.63;;;;;;;17.10;60.60;101473.97;6314231;22;20338;-81
2022/10/14 02:37:41;;;;;;;2.17;1.48;;;;;;;17.10;60.58;101473.09;6313216;22;20011;-82
2022/10/14 02:40:14;;;;;;;1.67;1.48;;;;;;;17.09;60.58;101464.41;6315411;22;20079;-82
2022/10/14 02:42:39;;;;;;;2.10;1.52;;;;;;;17.09;60.57;101460.94;6315052;22;20022;-81
2022/10/14 02:45:06;;;;;;;1.98;1.50;;;;;;;17.10;60.62;101463.56;6314692;22;19998;-81
2022/10/14 02:47:32;;;;;;;1.70;1.33;;;;;;;17.11;60.39;101459.22;6315090;22;19995;-82
2022/10/14 02:49:57;;;;;;;2.65;1.48;;;;;;;17.10;60.66;101462.69;6315228;22;20021;-82
2022/10/14 02:52:23;;;;;;;3.28;1.60;;;;;;;17.11;60.48;101456.63;6314894;22;20081;-81
2022/10/14 02:54:48;;;;;;;2.03;1.50;;;;;;;17.11;60.79;101464.41;6289578;22;20034;-82
2022/10/14 02:57:13;;;;;;;2.17;1.40;;;;;;;17.09;60.70;101459.22;6289658;22;20359;-82
2022/10/14 02:59:39;;;;;;;1.90;1.67;;;;;;;17.09;60.78;101453.16;6315862;22;20014;-82
2022/10/14 03:02:06;;;;;;;2.13;1.58;;;;;;;17.09;60.50;101454.00;6289978;22;20007;-82
2022/10/14 03:04:33;;;;;;;2.17;1.60;;;;;;;17.10;60.55;101452.28;6342734;22;20419;-81
2022/10/14 03:06:58;;;;;;;1.80;1.55;;;;;;;17.11;60.42;101449.69;6315266;22;20078;-82
2022/10/14 03:09:24;;;;;;;3.05;1.55;;;;;;;17.09;60.39;101450.53;6293533;22;20061;-83
2022/10/14 03:11:49;;;;;;;2.05;1.55;;;;;;;17.09;60.58;101446.19;6319333;22;20098;-82
2022/10/14 03:14:15;;;;;;;2.00;1.40;;;;;;;17.10;60.62;101445.34;6317718;22;20038;-82
2022/10/14 03:16:40;;;;;;;2.47;1.70;;;;;;;17.09;60.28;101442.75;6324973;22;20003;-82
2022/10/14 03:19:05;;;;;;;1.95;1.48;;;;;;;17.10;60.47;101439.28;6325726;22;20025;-82
2022/10/14 03:21:31;;;;;;;2.58;1.50;;;;;;;17.09;60.63;101434.94;6324075;22;20029;-87
2022/10/14 03:23:57;;;;;;;2.75;1.95;;;;;;;17.09;60.73;101427.13;6323933;22;20014;-82
2022/10/14 03:26:22;;;;;;;1.80;1.45;;;;;;;17.08;60.51;101426.28;6318164;22;20003;-82
2022/10/14 03:28:48;;;;;;;2.00;1.60;;;;;;;17.09;60.57;101421.94;6344709;22;20010;-82
2022/10/14 03:31:13;;;;;;;2.30;1.50;;;;;;;17.09;60.34;101408.94;6290818;22;20434;-83
2022/10/14 03:33:39;;;;;;;2.00;1.58;;;;;;;17.11;60.50;101412.41;6291205;22;20006;-82
2022/10/14 03:36:04;;;;;;;1.70;1.40;;;;;;;17.08;60.34;101413.28;6291026;22;20010;-82
2022/10/14 03:38:30;;;;;;;2.33;1.80;;;;;;;17.10;60.53;101414.16;6293827;22;20446;-82
2022/10/14 03:40:55;;;;;;;2.63;1.77;;;;;;;17.09;60.56;101404.59;6293781;22;20014;-82
2022/10/14 03:43:20;;;;;;;2.08;1.50;;;;;;;17.10;60.56;101393.34;6319619;22;20014;-82
2022/10/14 03:45:46;;;;;;;2.45;1.73;;;;;;;17.10;60.55;101395.09;6320512;22;20006;-83
2022/10/14 03:48:11;;;;;;;2.88;1.80;;;;;;;17.09;60.61;101396.78;6317331;22;20011;-83
2022/10/14 03:50:36;;;;;;;2.10;1.65;;;;;;;17.09;60.74;101391.59;6318153;22;20350;-83
2022/10/14 03:53:02;;;;;;;2.85;1.75;;;;;;;17.09;60.57;101391.59;6319086;22;20458;-83
2022/10/14 03:55:28;;;;;;;1.75;1.33;;;;;;;17.10;60.45;101395.09;6318355;22;20014;-82
2022/10/14 03:57:54;;;;;;;1.88;1.50;;;;;;;17.09;60.37;101394.19;6317743;22;20342;-83
2022/10/14 04:00:20;;;;;;;1.95;1.60;;;;;;;17.09;59.99;101380.34;6317808;22;20039;-82
2022/10/14 04:02:45;;;;;;;1.77;1.40;;;;;;;17.08;60.75;101383.81;6318351;22;20094;-83
2022/10/14 04:05:10;;;;;;;2.00;1.60;;;;;;;17.08;60.76;101389.88;6292780;22;20011;-82
2022/10/14 04:07:36;;;;;;;2.42;1.75;;;;;;;17.09;60.34;101383.78;6266633;22;20007;-81
2022/10/14 04:10:03;;;;;;;1.73;1.58;;;;;;;17.06;60.45;101379.47;6316934;22;20090;-82
2022/10/14 04:12:28;;;;;;;2.05;1.67;;;;;;;17.09;60.48;101382.94;6318659;22;20033;-82
2022/10/14 04:14:55;;;;;;;2.28;1.70;;;;;;;17.09;60.51;101382.94;6317952;22;20435;-82
2022/10/14 04:17:22;;;;;;;2.67;1.88;;;;;;;17.09;60.51;101383.78;6343924;22;20026;-82
2022/10/14 04:19:47;;;;;;;1.83;1.50;;;;;;;17.08;60.56;101383.81;6316462;22;20322;-82
2022/10/14 04:22:12;;;;;;;1.75;1.45;;;;;;;17.08;60.72;101381.22;6316000;22;20007;-82
2022/10/14 04:24:38;;;;;;;2.63;1.90;;;;;;;17.09;60.40;101377.72;6314832;22;20368;-82
2022/10/14 04:27:03;;;;;;;2.20;1.70;;;;;;;17.08;60.57;101373.41;6288514;22;20007;-82
2022/10/14 04:29:29;;;;;;;2.10;1.60;;;;;;;17.08;60.73;101373.41;6341299;22;20077;-83
2022/10/14 04:31:54;;;;;;;2.20;1.70;;;;;;;17.08;60.87;101376.88;6314662;22;20549;-82
2022/10/14 04:34:20;;;;;;;1.75;1.60;;;;;;;17.07;60.56;101367.31;6342144;22;20422;-83
2022/10/14 04:36:45;;;;;;;2.35;1.80;;;;;;;17.10;60.67;101366.47;6314950;22;20019;-82
2022/10/14 04:39:11;;;;;;;2.42;1.77;;;;;;;17.08;60.51;101369.06;6315229;22;20029;-82
2022/10/14 04:41:36;;;;;;;1.95;1.50;;;;;;;17.08;60.52;101361.28;6263298;22;20064;-81
2022/10/14 04:44:01;;;;;;;1.80;1.48;;;;;;;17.06;60.44;101361.25;6314087;22;20023;-81
2022/10/14 04:46:27;;;;;;;2.53;1.55;;;;;;;17.08;60.79;101355.22;6313798;22;20014;-82
2022/10/14 04:48:52;;;;;;;2.28;1.70;;;;;;;17.07;60.70;101349.13;6263933;22;20048;-82
2022/10/14 04:51:17;;;;;;;1.92;1.42;;;;;;;17.08;60.54;101340.47;6288786;22;20013;-82
2022/10/14 04:53:43;;;;;;;1.90;1.50;;;;;;;17.06;60.46;101326.59;6289265;22;20029;-82
2022/10/14 04:56:08;;;;;;;2.42;1.45;;;;;;;17.08;60.29;101324.00;6263578;22;20011;-82
2022/10/14 04:58:35;;;;;;;2.25;1.70;;;;;;;17.07;60.76;101317.91;6289365;22;20022;-82
2022/10/14 05:01:00;;;;;;;3.13;1.55;;;;;;;17.08;60.72;101318.81;6313630;22;20060;-82
2022/10/14 05:03:25;;;;;;;1.90;1.40;;;;;;;17.06;60.68;101317.06;6287674;22;20089;-80
2022/10/14 05:05:51;;;;;;;2.10;1.40;;;;;;;17.06;60.58;101313.59;6287554;22;20014;-80
2022/10/14 05:08:16;;;;;;;2.47;1.63;;;;;;;17.08;60.64;101311.00;6340632;22;20007;-81
2022/10/14 05:10:42;;;;;;;1.90;1.40;;;;;;;17.06;60.61;101308.41;6345979;22;20030;-83
2022/10/14 05:13:07;;;;;;;2.00;1.40;;;;;;;17.07;60.51;101310.13;6348086;22;20081;-84
2022/10/14 05:15:33;;;;;;;2.08;1.30;;;;;;;17.06;60.61;101308.41;6316274;22;20064;-82
2022/10/14 05:17:59;;;;;;;2.20;1.50;;;;;;;17.08;60.75;101301.47;6345601;22;20010;-84
2022/10/14 05:20:24;;;;;;;1.98;1.67;;;;;;;17.08;60.59;101298.00;6318129;22;20426;-82
2022/10/14 05:22:49;;;;;;;2.00;1.50;;;;;;;17.08;60.64;101298.00;6288285;22;20014;-81
2022/10/14 05:25:16;;;;;;;2.50;1.58;;;;;;;17.09;60.34;101294.53;6262344;22;20427;-79
2022/10/14 05:27:41;;;;;;;43.28;10.57;;;;;;;17.13;60.96;101299.72;6261441;22;20061;-77
2022/10/14 05:30:08;;;;;;;42.28;9.70;;;;;;;17.16;60.82;101294.53;6312387;22;20443;-77
2022/10/14 05:32:33;;;;;;;27.55;8.55;;;;;;;17.20;60.85;101295.38;6312966;22;20003;-77
2022/10/14 05:34:59;;;;;;;26.60;7.22;;;;;;;17.20;60.85;101293.66;6312448;22;20030;-77
2022/10/14 05:37:24;;;;;;;27.20;6.75;;;;;;;17.21;60.95;101291.94;6312328;22;20010;-78
2022/10/14 05:39:50;;;;;;;21.48;6.03;;;;;;;17.21;60.93;101287.59;6311963;22;20026;-76
2022/10/14 05:42:15;;;;;;;19.20;5.38;;;;;;;17.22;60.92;101284.13;6312082;22;20507;-78
2022/10/14 05:44:40;;;;;;;19.77;6.63;;;;;;;17.24;60.90;101276.31;6286265;22;20029;-77
2022/10/14 05:47:06;;;;;;;32.08;9.10;;;;;;;17.28;61.00;101270.22;6339842;22;19994;-78
2022/10/14 05:49:31;;;;;;;29.20;7.45;;;;;;;17.27;61.14;101271.97;6286372;22;20014;-79
2022/10/14 05:51:56;;;;;;;22.92;7.07;;;;;;;17.26;61.06;101272.81;6312349;22;19998;-78
2022/10/14 05:54:22;;;;;;;20.00;6.97;;;;;;;17.27;60.94;101284.97;6312333;22;20056;-80
2022/10/14 05:56:47;;;;;;;19.23;6.90;;;;;;;17.25;61.19;101275.47;6340071;22;20074;-79
2022/10/14 05:59:13;;;;;;;21.35;6.30;;;;;;;17.25;60.98;101278.91;6312746;22;20003;-80
2022/10/14 06:01:39;;;;;;;17.05;5.35;;;;;;;17.24;61.21;101271.97;6339818;22;20081;-80
2022/10/14 06:04:06;;;;;;;17.02;5.40;;;;;;;17.25;60.89;101270.25;6312643;22;20003;-80
2022/10/14 06:06:31;;;;;;;17.25;5.40;;;;;;;17.23;61.16;101259.84;6312445;22;20002;-80
2022/10/14 06:08:56;;;;;;;13.90;5.00;;;;;;;17.22;61.16;101255.53;6340059;22;20140;-80
2022/10/14 06:11:22;;;;;;;15.23;5.63;;;;;;;17.24;61.07;101258.97;6312011;22;20015;-80
2022/10/14 06:13:48;;;;;;;15.82;5.10;;;;;;;17.21;60.99;101258.97;6311918;22;20006;-80
2022/10/14 06:16:13;;;;;;;13.95;5.07;;;;;;;17.24;61.20;101265.91;6312212;22;20007;-79
2022/10/14 06:18:39;;;;;;;13.40;3.95;;;;;;;17.22;60.93;101252.91;6312793;22;20296;-80
2022/10/14 06:21:05;;;;;;;10.50;4.63;;;;;;;17.22;61.19;101257.22;6312086;22;20010;-79
2022/10/14 06:23:31;;;;;;;14.38;4.50;;;;;;;17.22;60.84;101252.91;6340397;22;20006;-80
2022/10/14 06:25:56;;;;;;;10.07;4.63;;;;;;;17.22;60.94;101247.72;6311961;22;20064;-79
2022/10/14 06:28:22;;;;;;;16.50;4.38;;;;;;;17.23;61.15;101254.63;6312017;22;20030;-79
2022/10/14 06:30:54;;;;;;;10.98;4.40;;;;;;;17.21;61.04;101245.97;6339752;22;20056;-80
2022/10/14 06:33:20;;;;;;;11.63;3.72;;;;;;;17.23;60.96;101244.22;6286213;22;20015;-80
2022/10/14 06:35:46;;;;;;;11.85;4.00;;;;;;;17.22;61.02;101244.22;6339893;22;20002;-79
2022/10/14 06:38:12;;;;;;;10.10;4.47;;;;;;;17.22;60.89;101241.63;6339658;22;20019;-80
2022/10/14 06:40:37;;;;;;;14.73;4.22;;;;;;;17.22;61.10;101233.81;6312233;22;20025;-79
2022/10/14 06:43:03;;;;;;;10.60;3.70;;;;;;;17.22;60.99;101228.63;6286019;22;20007;-80
2022/10/14 06:45:28;;;;;;;9.93;4.00;;;;;;;17.21;60.87;101222.56;6311855;22;20032;-80
2022/10/14 06:47:54;;;;;;;9.85;3.78;;;;;;;17.21;61.27;101222.56;6339389;22;20022;-80
2022/10/14 06:50:19;;;;;;;7.38;3.70;;;;;;;17.22;60.98;101220.81;6312108;22;20011;-79
2022/10/14 06:52:45;;;;;;;9.32;3.97;;;;;;;17.22;60.77;101215.63;6312683;22;20060;-81
2022/10/14 06:55:11;;;;;;;9.18;4.13;;;;;;;17.22;61.01;101205.22;6318101;22;20308;-79
2022/10/14 06:57:36;;;;;;;11.80;4.05;;;;;;;17.21;61.10;101201.75;6344701;22;20006;-80
2022/10/14 07:00:03;;;;;;;10.48;3.83;;;;;;;17.21;61.03;101201.75;6290418;22;20018;-79
2022/10/14 07:02:28;;;;;;;8.73;3.33;;;;;;;17.24;60.93;101198.28;6315795;22;20003;-81
2022/10/14 07:04:54;;;;;;;9.13;3.78;;;;;;;17.24;60.99;101200.88;6289897;22;20007;-80
2022/10/14 07:07:19;;;;;;;7.40;3.67;;;;;;;17.24;60.82;101193.94;6287972;22;20094;-79
2022/10/14 07:09:45;;;;;;;8.05;3.45;;;;;;;17.25;61.07;101192.22;6312719;22;20006;-79
2022/10/14 07:12:10;;;;;;;6.55;3.45;;;;;;;17.24;60.83;101195.69;6312383;22;20019;-79
2022/10/14 07:14:35;;;;;;;9.95;3.33;;;;;;;17.23;60.84;101197.41;6311762;22;20011;-79
2022/10/14 07:17:01;;;;;;;7.18;3.53;;;;;;;17.25;60.85;101200.03;6286420;22;20391;-80
2022/10/14 07:19:26;;;;;;;8.45;3.30;;;;;;;17.22;61.09;101198.31;6285848;22;20077;-79
2022/10/14 07:21:51;;;;;;;7.63;3.17;;;;;;;17.25;60.84;101205.22;6311567;22;20010;-78
2022/10/14 07:24:17;;;;;;;8.90;3.40;;;;;;;17.25;60.84;101207.84;6260543;22;20011;-79
2022/10/14 07:26:42;;;;;;;7.00;3.30;;;;;;;17.25;60.84;101206.09;6287743;22;20086;-78
2022/10/14 07:29:08;;;;;;;7.07;3.05;;;;;;;17.26;60.75;101204.34;6262431;22;20010;-78
2022/10/14 07:31:34;;;;;;;6.15;3.17;;;;;;;17.25;60.90;101195.69;6263573;22;20011;-78
2022/10/14 07:34:00;;;;;;;8.02;3.13;;;;;;;17.26;60.93;101210.41;6313939;22;20030;-78
2022/10/14 07:36:26;;;;;;;8.82;3.05;;;;;;;17.26;60.90;101207.81;6313414;22;20435;-78
2022/10/14 07:38:52;;;;;;;6.20;2.95;;;;;;;17.27;60.92;101213.91;6287526;22;20019;-77
2022/10/14 07:41:21;;;;;;;8.45;3.30;;;;;;;17.25;61.03;101216.50;6313064;22;20014;-79
2022/10/14 07:43:52;;;;;;;9.98;3.40;;;;;;;17.26;61.01;101213.00;6340972;22;19999;-77
2022/10/14 07:46:31;;;;;;;7.07;2.97;;;;;;;17.27;60.86;101221.69;6341357;22;20003;-78
2022/10/14 07:48:59;;;;;;;8.73;2.92;;;;;;;17.26;60.99;101215.59;6341219;22;20080;-78
2022/10/14 07:51:26;;;;;;;7.32;3.33;;;;;;;17.26;60.88;101215.59;6313422;22;20419;-78
2022/10/14 07:53:52;;;;;;;6.78;3.20;;;;;;;17.27;60.95;101212.16;6343862;22;20006;-78
2022/10/14 07:56:18;;;;;;;7.38;2.63;;;;;;;17.27;61.00;101208.69;6318156;22;19999;-79
2022/10/14 07:58:43;;;;;;;10.60;2.85;;;;;;;17.27;60.96;101203.50;6291787;22;20007;-78
2022/10/14 08:01:09;;;;;;;5.57;2.83;;;;;;;17.28;61.04;101197.41;6319262;22;20051;-79
2022/10/14 08:03:34;;;;;;;7.05;2.95;;;;;;;17.27;60.90;101201.75;6315377;22;20007;-78
2022/10/14 08:06:02;;;;;;;4.65;2.60;;;;;;;17.27;61.25;101193.94;6313801;22;20014;-78
2022/10/14 08:08:28;;;;;;;5.22;2.55;;;;;;;17.28;60.94;101198.25;6341051;22;19999;-78
2022/10/14 08:11:11;;;;;;;9.02;2.88;;;;;;;17.27;61.06;101193.94;6313441;22;20382;-78
2022/10/14 08:13:38;;;;;;;7.13;3.00;;;;;;;17.28;61.05;101194.81;6313443;22;20006;-78
2022/10/14 08:16:15;;;;;;;7.18;3.05;;;;;;;17.29;61.17;101201.75;6313650;22;20056;-78
2022/10/14 08:18:41;;;;;;;5.22;2.58;;;;;;;17.29;61.08;101204.34;6340617;22;19998;-78
2022/10/14 08:21:06;;;;;;;4.70;2.42;;;;;;;17.28;60.89;101195.66;6287163;22;20003;-77
2022/10/14 08:23:32;;;;;;;5.50;2.45;;;;;;;17.28;61.01;101197.41;6313174;22;20014;-78
2022/10/14 08:25:57;;;;;;;5.93;2.60;;;;;;;17.28;60.91;101193.06;6287258;22;20017;-78
2022/10/14 08:28:23;;;;;;;6.10;2.63;;;;;;;17.29;60.93;101191.34;6313026;22;20006;-78
2022/10/14 08:30:49;;;;;;;4.32;2.33;;;;;;;17.30;60.91;101192.22;6313122;22;20097;-78
2022/10/14 08:33:14;;;;;;;4.57;2.53;;;;;;;17.29;60.99;101193.94;6313093;22;20037;-78
2022/10/14 08:35:39;;;;;;;6.15;2.63;;;;;;;17.30;61.17;101194.81;6312865;22;20014;-78
2022/10/14 08:38:05;;;;;;;4.18;2.13;;;;;;;17.29;60.99;101191.34;6286626;22;20027;-78
2022/10/14 08:40:45;;;;;;;4.68;2.38;;;;;;;17.30;61.13;101190.47;6287019;22;20025;-78
2022/10/14 08:43:27;;;;;;;6.07;2.70;;;;;;;17.28;61.01;101187.84;6340533;22;20137;-78
2022/10/14 08:46:22;;;;;;;5.13;2.45;;;;;;;17.29;61.12;101183.53;6313367;22;20007;-78
2022/10/14 08:48:50;;;;;;;3.70;2.15;;;;;;;17.30;60.90;101182.66;6312512;22;20088;-78
2022/10/14 08:51:18;;;;;;;5.70;2.38;;;;;;;17.31;61.32;101184.41;6340756;22;20056;-78
2022/10/14 08:53:57;;;;;;;4.53;2.50;;;;;;;17.31;61.21;101174.00;6312889;22;20003;-78
2022/10/14 08:56:23;;;;;;;5.07;2.55;;;;;;;17.31;61.25;101166.19;6340577;22;20077;-78
2022/10/14 08:58:54;;;;;;;3.97;2.30;;;;;;;17.32;61.05;101172.25;6312776;22;20006;-78
2022/10/14 09:01:34;;;;;;;5.13;2.30;;;;;;;17.33;61.27;101163.56;6312790;22;20007;-79
2022/10/14 09:04:12;;;;;;;4.40;2.28;;;;;;;17.33;60.91;101163.56;6341244;22;19999;-78
2022/10/14 09:06:44;;;;;;;4.70;2.20;;;;;;;17.33;61.31;101164.44;6312762;22;20331;-78
2022/10/14 09:09:40;;;;;;;3.85;2.10;;;;;;;17.34;61.14;101160.13;6312455;22;20093;-78
2022/10/14 09:12:12;;;;;;;5.68;2.10;;;;;;;17.32;60.89;101152.31;6312729;22;20017;-78
2022/10/14 09:14:43;;;;;;;4.07;2.17;;;;;;;17.34;61.22;101149.72;6312737;22;20015;-78
2022/10/14 09:17:18;;;;;;;3.63;2.22;;;;;;;17.33;61.20;101151.44;6312549;22;20002;-78
2022/10/14 09:19:50;;;;;;;4.97;2.20;;;;;;;17.35;61.10;101149.69;6312593;22;20041;-78
2022/10/14 09:22:16;;;;;;;4.68;2.38;;;;;;;17.35;61.09;101144.47;6312528;22;20335;-78
2022/10/14 09:24:45;;;;;;;3.92;2.03;;;;;;;17.35;60.99;101143.63;6340024;22;20003;-78
2022/10/14 09:27:15;;;;;;;3.80;1.92;;;;;;;17.36;60.89;101141.03;6287273;22;19999;-78
2022/10/14 09:30:03;;;;;;;3.85;2.13;;;;;;;17.38;61.10;101146.22;6312701;22;20003;-78
2022/10/14 09:32:38;;;;;;;3.83;2.00;;;;;;;17.36;61.11;101146.22;6312173;22;20067;-78
2022/10/14 09:35:13;;;;;;;4.63;2.20;;;;;;;17.38;60.99;101148.84;6312198;22;20006;-79
2022/10/14 09:37:39;;;;;;;4.55;2.30;;;;;;;17.40;61.26;101142.75;6312497;22;20015;-78
2022/10/14 09:40:07;;;;;;;5.00;2.10;;;;;;;17.46;60.90;101142.72;6312192;22;20050;-78
2022/10/14 09:42:42;;;;;;;4.10;2.13;;;;;;;17.45;61.13;101145.34;6312157;22;20030;-78
2022/10/14 09:45:13;;;;;;;4.13;2.03;;;;;;;17.42;61.02;101140.13;6312216;22;20042;-79
2022/10/14 09:47:45;;;;;;;4.50;2.03;;;;;;;17.41;61.27;101138.41;6311816;22;20010;-78
2022/10/14 09:50:21;;;;;;;4.55;2.10;;;;;;;17.40;61.37;101144.50;6312237;22;20091;-79
2022/10/14 09:53:07;;;;;;;4.18;2.20;;;;;;;17.39;61.31;101134.94;6312410;22;20434;-80
2022/10/14 09:55:33;;;;;;;3.63;1.73;;;;;;;17.40;61.28;101134.94;6339755;22;20104;-78
2022/10/14 09:58:17;;;;;;;4.10;2.30;;;;;;;17.40;61.36;101134.09;6312141;22;20011;-78
2022/10/14 10:00:44;;;;;;;2.70;1.80;;;;;;;17.41;61.51;101130.59;6312112;22;20013;-79
2022/10/14 10:03:24;;;;;;;5.25;2.03;;;;;;;17.41;61.49;101128.00;6312695;22;20011;-79
2022/10/14 10:06:05;;;;;;;3.33;2.22;;;;;;;17.40;61.40;101124.53;6340115;22;20006;-79
2022/10/14 10:08:31;;;;;;;2.70;1.77;;;;;;;17.40;61.31;101121.94;6339905;22;20001;-79
2022/10/14 10:11:05;;;;;;;5.03;2.15;;;;;;;17.41;61.29;101123.66;6311895;22;20593;-79
2022/10/14 10:13:43;;;;;;;4.07;2.10;;;;;;;17.40;61.60;101124.53;6340051;22;20002;-79
2022/10/14 10:16:26;;;;;;;4.00;1.77;;;;;;;17.40;61.56;101124.53;6338146;22;20011;-79
2022/10/14 10:18:54;;;;;;;3.33;2.13;;;;;;;17.41;61.46;101121.06;6339864;22;20450;-79
2022/10/14 10:21:29;;;;;;;3.58;2.00;;;;;;;17.41;61.62;101117.59;6313440;22;20133;-79
2022/10/14 10:24:00;;;;;;;3.70;1.73;;;;;;;17.41;61.49;101115.84;6317668;22;20003;-81
2022/10/14 10:26:32;;;;;;;4.18;2.17;;;;;;;17.40;61.46;101116.72;6320121;22;20015;-79
2022/10/14 10:29:01;;;;;;;3.75;1.92;;;;;;;17.41;61.32;101117.59;6315405;22;20006;-79
2022/10/14 10:31:52;;;;;;;3.53;2.20;;;;;;;17.40;61.42;101119.34;6314575;22;20007;-80
2022/10/14 10:34:23;;;;;;;3.47;2.00;;;;;;;17.41;61.65;101107.19;6316483;22;20079;-79
2022/10/14 10:37:17;;;;;;;3.42;1.98;;;;;;;17.40;61.41;101108.94;6317799;22;20011;-80
2022/10/14 10:40:02;;;;;;;3.50;1.92;;;;;;;17.41;61.27;101102.84;6346798;22;20075;-80
2022/10/14 10:42:48;;;;;;;3.65;1.85;;;;;;;17.41;61.46;101101.97;6318252;22;20014;-79
2022/10/14 10:45:52;;;;;;;3.00;2.00;;;;;;;17.41;61.44;101102.84;6345460;22;20330;-81
2022/10/14 10:48:46;;;;;;;3.35;1.80;;;;;;;17.40;61.49;101093.31;6189826;23;20091;-79
2022/10/14 10:51:21;;;;;;;3.47;1.98;;;;;;;17.43;61.61;101092.44;6186001;23;20031;-80
2022/10/14 10:54:00;;;;;;;3.45;1.98;;;;;;;17.43;61.53;101090.69;6276350;22;20419;-79
2022/10/14 10:56:42;;;;;;;3.00;1.77;;;;;;;17.45;61.49;101082.88;6313371;22;20430;-79
2022/10/14 10:59:14;;;;;;;3.35;1.98;;;;;;;17.45;61.28;101088.09;6312796;22;20144;-79
2022/10/14 11:02:16;;;;;;;4.25;1.80;;;;;;;17.45;61.52;101083.75;6313831;22;20423;-80
2022/10/14 11:05:12;;;;;;;2.63;1.70;;;;;;;17.45;61.42;101081.16;6335933;22;20014;-79
2022/10/14 11:14:12;;;;;;;3.10;1.73;;;;;;;17.47;61.45;101057.72;6341409;22;20060;-79
2022/10/14 11:16:47;;;;;;;3.05;1.90;;;;;;;17.48;61.22;101056.84;6341322;22;20003;-79
2022/10/14 11:19:32;;;;;;;1.92;1.40;;;;;;;17.47;61.36;101050.78;6313524;22;20426;-79
2022/10/14 11:22:03;;;;;;;3.70;1.90;;;;;;;17.48;61.18;101044.72;6313692;22;20017;-79
2022/10/14 11:24:57;;;;;;;3.65;1.75;;;;;;;17.51;61.25;101051.63;6313507;22;20007;-79
2022/10/14 11:27:56;;;;;;;2.92;1.67;;;;;;;17.52;61.21;101052.50;6313877;22;20081;-79
2022/10/14 11:30:42;;;;;;;3.45;1.70;;;;;;;17.50;61.20;101046.44;6230822;22;20038;-78
2022/10/14 11:33:11;;;;;;;1.83;1.30;;;;;;;17.48;61.45;101049.94;6313860;22;20015;-79
2022/10/14 11:35:49;;;;;;;2.50;1.50;;;;;;;17.49;61.44;101048.19;6313495;22;20026;-82
2022/10/14 11:38:33;;;;;;;3.83;1.60;;;;;;;17.48;61.26;101041.22;6341594;22;20002;-83
2022/10/14 11:41:11;;;;;;;1.85;1.38;;;;;;;17.48;61.50;101036.03;6314524;22;20049;-83
2022/10/14 11:43:58;;;;;;;4.20;1.40;;;;;;;17.47;61.58;101027.38;6314311;22;20010;-83
2022/10/14 11:46:28;;;;;;;2.40;1.60;;;;;;;17.47;61.50;101022.16;6341433;22;20111;-84